Etusivu
METAR-TAF:

METAR-TAF

Lentoasemat :

Edson, Alberta, Kanada

Leveyspiiri: 53-35N, Pituuspiiri: 116-28W, korkeus merenpinnasta: 921 m

Tämänhetkinen sää

Tämä raportti tehtiin 15 minuuttia sitten, kello 22.00 UTC
Tuuli 2 kn eri suunnista
Lämpötila 6°C
Kosteus 65%
Ilmanpaine 1009 hPa
Näkyvyys: 14.5 km
selkeää

METAR: CYET 202200Z AUTO VRB02KT 9SM CLR 06/M00 A2981 RMK SLP128

Aika: 15:15 (22:15 UTC)


TAF: puuttuu

Säähavainnot ja -ennusteet yli 4000 lentoasemalta (METAR- ja TAF-raportit).

Käytössä olevat sääasemat on merkitty karttaan keltaisilla ja punaisilla pisteillä.

Aseta hiiri pisteen päälle nähdäksesi sääaseman nimen.

Klikkaa sitten nähdäksesi säähavainnot ja -ennusteet.

Kartan vaihtaminen: klikkaa mustalla rastilla varustettuja vihreitä pisteitä, niin voit zoomata sisään; viivalla varustettua vihreää pistettä, niin voit zoomata ulos tai vihreitä nuolia, niin pääset viereisille kartoille.


METAR-TAF: